Bei Facebook empfehlenBei Twitter postenGoogle plusPinterest

Das Wetter im Erzgebirge am 12.09.2017

Wetter und Klima am 12.09.2017 Holzhau im Erzgebirge (630m ü.NN)
Letzte gemessene Temperatur und Uhrzeit der Messung23:45:00 Uhr5.50 °C
Temperatur (Maximum / Höchstwert) und Uhrzeit der Messung15:30:00 Uhr16.40 °C
Temperatur (Minimum / Tiefstwert) und Uhrzeit der Messung06:30:004.60 °C
Errechneter Absolutwert der Temperaturschwankungen zwischen Tmin und Tmax des Tages11.80 K
Errechnete Tagesmitteltemperatur9.49271 °C
Gesamt - Niederschlag des Tages (in flüssiger Form)0.00 Liter / m²
Luftdruck (Maximum / Höchstwert) und Zeitpunkt der Messung23:45:00 Uhr1008.80 hPa
Luftdruck (Minimum / Tiefstwert) und Zeitpunkt der Messung00:00:00 Uhr1002.20 hPa
Errechneter Absolutwert der Luftdruckschwankungen des Tages6.60 hPa
Höchste gemessene Windgeschwindigkeit und Uhrzeit der Messung12:15:00 Uhr43.92 km/h
Errechnete Windhäufigkeit in Relation zu den Messwerten des Tages15.62500 %
Niedrigste Windkühle (Windchill) und Zeitpunkt der Messung06:30:00 Uhr4.60 °C
Taupunkt (Maximum / Höchstwert) und Uhrzeit der Messung11:15:00 Uhr10.30 °C
Taupunkt (Minimum / Tiefstwert) und Uhrzeit der Messung04:30:003.50 °C
Anzahl der automatisch eingelesenen Messwerte 96

Detaillierte Wetter- und Klima- Messwerte für den 12.09.2017 in Holzhau im Erzgebirge (630m ü.NN)
ZeitTemperaturLuftdruckRel. LuftfeuchteWindWindrichtungWindchillTaupunktNiederschlag l/m²
23:45:005.50 °C1008.80 hPa91.00 %4.20 °C 
23:30:005.70 °C1008.60 hPa90.00 %4.20 °C 
23:15:005.90 °C1008.50 hPa89.00 %4.20 °C 
23:00:006.20 °C1008.70 hPa89.00 %4.50 °C 
22:45:006.30 °C1008.60 hPa89.00 %4.60 °C 
22:30:006.40 °C1008.60 hPa89.00 %4.70 °C 
22:15:006.40 °C1008.40 hPa88.00 %4.60 °C 
22:00:006.60 °C1008.20 hPa88.00 %4.80 °C 
21:45:006.80 °C1008.10 hPa87.00 %4.80 °C 
21:30:007.10 °C1008.00 hPa86.00 %4.90 °C 
21:15:007.40 °C1008.00 hPa86.00 %5.20 °C 
21:00:007.40 °C1007.80 hPa85.00 %5.00 °C 
20:45:008.10 °C1007.60 hPa84.00 %5.60 °C 
20:30:008.40 °C1007.20 hPa83.00 %5.70 °C 
20:15:008.80 °C1006.90 hPa82.00 %5.90 °C 
20:00:009.30 °C1006.80 hPa81.00 %6.20 °C 
19:45:009.80 °C1006.50 hPa81.00 %6.70 °C 
19:30:0010.10 °C1006.70 hPa79.00 %6.60 °C 
19:15:0010.60 °C1006.70 hPa77.00 %6.70 °C 
19:00:0011.20 °C1006.70 hPa76.00 %7.10 °C 
18:45:0011.90 °C1006.50 hPa73.00 %7.20 °C 
18:30:0012.90 °C1006.60 hPa71.00 %7.80 °C 
18:15:0013.40 °C1006.30 hPa70.00 %37.44 km/hSW12.60 °C8.00 °C 
18:00:0012.90 °C1006.30 hPa72.00 %8.00 °C 
17:45:0012.80 °C1006.20 hPa70.00 %7.50 °C 
17:30:0013.80 °C1006.30 hPa69.00 %8.20 °C 
17:15:0013.90 °C1006.20 hPa67.00 %7.90 °C 
17:00:0014.20 °C1006.00 hPa66.00 %1.44 km/hWNW14.20 °C7.90 °C 
16:45:0014.40 °C1006.10 hPa65.00 %7.90 °C 
16:30:0015.20 °C1005.90 hPa63.00 %8.20 °C 
16:15:0015.80 °C1005.90 hPa63.00 %8.80 °C 
16:00:0015.60 °C1005.80 hPa63.00 %15.48 km/hNW15.60 °C8.60 °C 
15:45:0015.90 °C1005.80 hPa63.00 %6.48 km/hWNW15.90 °C8.90 °C 
15:30:0016.40 °C1005.70 hPa62.00 %9.10 °C 
15:15:0016.10 °C1005.30 hPa62.00 %7.92 km/hW16.10 °C8.80 °C 
15:00:0015.90 °C1005.30 hPa65.00 %11.52 km/hW15.90 °C9.30 °C 
14:45:0015.50 °C1005.20 hPa66.00 %21.96 km/hO15.80 °C9.20 °C 
14:30:0015.10 °C1005.20 hPa67.00 %9.00 °C 
14:15:0014.90 °C1005.10 hPa69.00 %9.30 °C 
14:00:0014.40 °C1005.00 hPa72.00 %9.40 °C 
13:45:0013.90 °C1005.10 hPa71.00 %8.70 °C 
13:30:0013.70 °C1004.90 hPa72.00 %8.70 °C 
13:15:0014.40 °C1004.70 hPa70.00 %9.00 °C 
13:00:0014.30 °C1004.50 hPa73.00 %16.92 km/hSW14.30 °C9.50 °C 
12:45:0013.90 °C1004.80 hPa74.00 %21.96 km/hSSW13.90 °C9.30 °C 
12:30:0014.00 °C1004.80 hPa74.00 %20.88 km/hWSW14.10 °C9.40 °C 
12:15:0013.80 °C1004.30 hPa73.00 %43.92 km/hSW12.90 °C9.00 °C 
12:00:0014.70 °C1004.00 hPa72.00 %9.70 °C 
11:45:0014.90 °C1004.00 hPa72.00 %18.00 km/hSSW15.30 °C9.90 °C 
11:30:0014.80 °C1003.70 hPa74.00 %19.44 km/hWSW15.10 °C10.20 °C 
11:15:0014.50 °C1003.60 hPa76.00 %10.30 °C 
11:00:0013.40 °C1003.40 hPa79.00 %9.80 °C 
10:45:0012.90 °C1003.70 hPa80.00 %9.50 °C 
10:30:0012.80 °C1003.50 hPa81.00 %9.60 °C 
10:15:0012.80 °C1003.70 hPa82.00 %9.80 °C 
10:00:0012.40 °C1003.50 hPa83.00 %9.60 °C 
09:45:0012.40 °C1003.40 hPa84.00 %24.48 km/hSW12.00 °C9.80 °C 
09:30:0011.40 °C1003.30 hPa88.00 %19.44 km/hSSW11.20 °C9.50 °C 
09:15:0010.80 °C1003.30 hPa90.00 %9.20 °C 
09:00:0010.60 °C1003.20 hPa94.00 %9.70 °C 
08:45:009.90 °C1003.10 hPa95.00 %9.10 °C 
08:30:008.90 °C1002.70 hPa95.00 %8.10 °C 
08:15:007.60 °C1002.90 hPa95.00 %6.90 °C 
08:00:006.40 °C1003.20 hPa95.00 %5.70 °C 
07:45:005.60 °C1003.10 hPa95.00 %4.90 °C 
07:30:005.30 °C1002.80 hPa94.00 %4.40 °C 
07:15:004.90 °C1002.90 hPa94.00 %4.00 °C 
07:00:004.80 °C1002.80 hPa94.00 %3.90 °C 
06:45:004.80 °C1002.80 hPa94.00 %3.90 °C 
06:30:004.60 °C1002.70 hPa93.00 %3.60 °C 
06:15:004.80 °C1002.70 hPa93.00 %3.80 °C 
06:00:005.20 °C1002.60 hPa94.00 %4.30 °C 
05:45:005.30 °C1002.50 hPa94.00 %4.40 °C 
05:30:005.30 °C1002.50 hPa94.00 %4.40 °C 
05:15:004.90 °C1002.40 hPa93.00 %3.90 °C 
05:00:004.70 °C1002.50 hPa93.00 %3.70 °C 
04:45:004.60 °C1002.50 hPa93.00 %3.60 °C 
04:30:004.70 °C1002.50 hPa92.00 %3.50 °C 
04:15:004.90 °C1002.60 hPa92.00 %3.70 °C 
04:00:005.10 °C1002.40 hPa93.00 %4.10 °C 
03:45:005.30 °C1002.50 hPa93.00 %4.30 °C 
03:30:005.00 °C1002.40 hPa92.00 %3.80 °C 
03:15:004.90 °C1002.50 hPa92.00 %3.70 °C 
03:00:005.00 °C1002.70 hPa92.00 %3.80 °C 
02:45:004.90 °C1002.60 hPa92.00 %3.70 °C 
02:30:004.80 °C1002.80 hPa92.00 %3.60 °C 
02:15:004.90 °C1002.80 hPa91.00 %3.60 °C 
02:00:005.10 °C1002.80 hPa91.00 %3.80 °C 
01:45:005.30 °C1002.60 hPa91.00 %4.00 °C 
01:30:005.50 °C1003.10 hPa91.00 %4.20 °C 
01:15:005.60 °C1002.70 hPa91.00 %4.20 °C 
01:00:005.80 °C1002.70 hPa90.00 %4.30 °C 
00:45:005.90 °C1002.60 hPa90.00 %4.40 °C 
00:30:006.30 °C1002.70 hPa89.00 %4.60 °C 
00:15:006.50 °C1002.30 hPa89.00 %4.80 °C 
00:00:006.80 °C1002.20 hPa89.00 %5.10 °C 

Permanenter Link zu dieser Seite: Wetter im Erzgebirge am 12.09.2017
Performance-Info: Die Erstellung der Seite / Statistik(en) / Tabelle(n) erforderte 5 Datenbankserver-Abfrage(n) und dauerte 98 Millisekunden. (Dieser Messwert ist von der Gesamt-Auslastung des Servers abhängig.)
Erzgebirge - Wetter | Erzgebirge - Wetter (Mobilgeräte) | Komplette Klimadatenbank